sensor_id;sensor_type;location;lat;lon;timestamp;temperature;humidity
20489;DHT22;10403;54.092;12.122;2024-02-21T00:01:24;8.70;99.90
20489;DHT22;10403;54.092;12.122;2024-02-21T00:03:52;8.70;99.90
20489;DHT22;10403;54.092;12.122;2024-02-21T00:06:19;8.70;99.90
20489;DHT22;10403;54.092;12.122;2024-02-21T00:08:46;8.70;99.90
20489;DHT22;10403;54.092;12.122;2024-02-21T00:11:14;8.70;99.90
20489;DHT22;10403;54.092;12.122;2024-02-21T00:13:42;8.70;99.90
20489;DHT22;10403;54.092;12.122;2024-02-21T00:16:09;8.70;99.90
20489;DHT22;10403;54.092;12.122;2024-02-21T00:18:37;8.70;99.90
20489;DHT22;10403;54.092;12.122;2024-02-21T00:21:05;8.70;99.90
20489;DHT22;10403;54.092;12.122;2024-02-21T00:23:32;8.70;99.90
20489;DHT22;10403;54.092;12.122;2024-02-21T00:25:59;8.70;99.90
20489;DHT22;10403;54.092;12.122;2024-02-21T00:28:27;8.70;99.90
20489;DHT22;10403;54.092;12.122;2024-02-21T00:30:54;8.80;99.90
20489;DHT22;10403;54.092;12.122;2024-02-21T00:33:21;8.70;99.90
20489;DHT22;10403;54.092;12.122;2024-02-21T00:35:49;8.70;99.90
20489;DHT22;10403;54.092;12.122;2024-02-21T00:38:16;8.70;99.90
20489;DHT22;10403;54.092;12.122;2024-02-21T00:40:43;8.70;99.90
20489;DHT22;10403;54.092;12.122;2024-02-21T00:43:10;9.20;99.90
20489;DHT22;10403;54.092;12.122;2024-02-21T00:45:38;8.70;99.90
20489;DHT22;10403;54.092;12.122;2024-02-21T00:48:05;8.70;99.90
20489;DHT22;10403;54.092;12.122;2024-02-21T00:50:33;8.70;99.90
20489;DHT22;10403;54.092;12.122;2024-02-21T00:53:00;8.80;99.90
20489;DHT22;10403;54.092;12.122;2024-02-21T00:55:27;8.80;99.90
20489;DHT22;10403;54.092;12.122;2024-02-21T00:57:55;8.70;99.90
20489;DHT22;10403;54.092;12.122;2024-02-21T01:00:22;8.80;99.90
20489;DHT22;10403;54.092;12.122;2024-02-21T01:02:50;8.70;99.90
20489;DHT22;10403;54.092;12.122;2024-02-21T01:05:20;8.70;99.90
20489;DHT22;10403;54.092;12.122;2024-02-21T01:07:47;8.80;99.90
20489;DHT22;10403;54.092;12.122;2024-02-21T01:10:14;8.70;99.90
20489;DHT22;10403;54.092;12.122;2024-02-21T01:12:42;8.70;99.90
20489;DHT22;10403;54.092;12.122;2024-02-21T01:15:09;8.70;99.90
20489;DHT22;10403;54.092;12.122;2024-02-21T01:17:37;8.80;99.90
20489;DHT22;10403;54.092;12.122;2024-02-21T01:20:07;8.70;99.90
20489;DHT22;10403;54.092;12.122;2024-02-21T01:22:35;8.70;99.90
20489;DHT22;10403;54.092;12.122;2024-02-21T01:25:02;8.70;99.90
20489;DHT22;10403;54.092;12.122;2024-02-21T01:27:30;8.70;99.90
20489;DHT22;10403;54.092;12.122;2024-02-21T01:29:57;8.70;99.90
20489;DHT22;10403;54.092;12.122;2024-02-21T01:32:24;8.70;99.90
20489;DHT22;10403;54.092;12.122;2024-02-21T01:34:52;8.70;99.90
20489;DHT22;10403;54.092;12.122;2024-02-21T01:37:19;8.70;99.90
20489;DHT22;10403;54.092;12.122;2024-02-21T01:39:46;8.70;99.90
20489;DHT22;10403;54.092;12.122;2024-02-21T01:42:14;8.70;99.90
20489;DHT22;10403;54.092;12.122;2024-02-21T01:44:41;8.80;99.90
20489;DHT22;10403;54.092;12.122;2024-02-21T01:47:08;8.80;99.90
20489;DHT22;10403;54.092;12.122;2024-02-21T01:49:36;8.80;99.90
20489;DHT22;10403;54.092;12.122;2024-02-21T01:52:03;8.80;99.90
20489;DHT22;10403;54.092;12.122;2024-02-21T01:54:31;8.80;99.90
20489;DHT22;10403;54.092;12.122;2024-02-21T01:56:59;8.80;99.90
20489;DHT22;10403;54.092;12.122;2024-02-21T01:59:26;8.80;99.90
20489;DHT22;10403;54.092;12.122;2024-02-21T02:01:55;8.80;99.90
20489;DHT22;10403;54.092;12.122;2024-02-21T02:04:24;8.80;99.90
20489;DHT22;10403;54.092;12.122;2024-02-21T02:06:54;8.80;99.90
20489;DHT22;10403;54.092;12.122;2024-02-21T02:09:22;8.90;99.90
20489;DHT22;10403;54.092;12.122;2024-02-21T02:11:49;8.80;99.90
20489;DHT22;10403;54.092;12.122;2024-02-21T02:14:17;8.80;99.90
20489;DHT22;10403;54.092;12.122;2024-02-21T02:16:48;8.80;99.90
20489;DHT22;10403;54.092;12.122;2024-02-21T02:19:15;8.80;99.90
20489;DHT22;10403;54.092;12.122;2024-02-21T02:21:49;8.80;99.90
20489;DHT22;10403;54.092;12.122;2024-02-21T02:24:24;8.80;99.90
20489;DHT22;10403;54.092;12.122;2024-02-21T02:26:53;8.90;99.90
20489;DHT22;10403;54.092;12.122;2024-02-21T02:29:20;8.80;99.90
20489;DHT22;10403;54.092;12.122;2024-02-21T02:31:48;8.90;99.90
20489;DHT22;10403;54.092;12.122;2024-02-21T02:34:16;8.90;99.90
20489;DHT22;10403;54.092;12.122;2024-02-21T02:36:43;8.90;99.90
20489;DHT22;10403;54.092;12.122;2024-02-21T02:39:10;8.90;99.90
20489;DHT22;10403;54.092;12.122;2024-02-21T02:41:38;8.90;99.90
20489;DHT22;10403;54.092;12.122;2024-02-21T02:44:05;8.90;99.90
20489;DHT22;10403;54.092;12.122;2024-02-21T02:46:32;8.90;99.90
20489;DHT22;10403;54.092;12.122;2024-02-21T02:49:01;8.90;99.90
20489;DHT22;10403;54.092;12.122;2024-02-21T02:51:28;8.90;99.90
20489;DHT22;10403;54.092;12.122;2024-02-21T02:53:55;8.90;99.90
20489;DHT22;10403;54.092;12.122;2024-02-21T02:56:24;8.90;99.90
20489;DHT22;10403;54.092;12.122;2024-02-21T02:58:51;8.90;99.90
20489;DHT22;10403;54.092;12.122;2024-02-21T03:01:19;8.90;99.90
20489;DHT22;10403;54.092;12.122;2024-02-21T03:03:46;8.90;99.90
20489;DHT22;10403;54.092;12.122;2024-02-21T03:06:14;8.90;99.90
20489;DHT22;10403;54.092;12.122;2024-02-21T03:08:41;8.90;99.90
20489;DHT22;10403;54.092;12.122;2024-02-21T03:11:09;8.90;99.90
20489;DHT22;10403;54.092;12.122;2024-02-21T03:13:38;8.90;99.90
20489;DHT22;10403;54.092;12.122;2024-02-21T03:16:05;8.90;99.90
20489;DHT22;10403;54.092;12.122;2024-02-21T03:18:33;8.90;99.90
20489;DHT22;10403;54.092;12.122;2024-02-21T03:21:00;8.90;99.90
20489;DHT22;10403;54.092;12.122;2024-02-21T03:23:27;8.90;99.90
20489;DHT22;10403;54.092;12.122;2024-02-21T03:25:55;8.90;99.90
20489;DHT22;10403;54.092;12.122;2024-02-21T03:28:22;8.90;99.90
20489;DHT22;10403;54.092;12.122;2024-02-21T03:30:49;8.90;99.90
20489;DHT22;10403;54.092;12.122;2024-02-21T03:33:17;8.90;99.90
20489;DHT22;10403;54.092;12.122;2024-02-21T03:35:44;8.90;99.90
20489;DHT22;10403;54.092;12.122;2024-02-21T03:38:11;8.90;99.90
20489;DHT22;10403;54.092;12.122;2024-02-21T03:40:39;8.90;99.90
20489;DHT22;10403;54.092;12.122;2024-02-21T03:43:06;8.90;99.90
20489;DHT22;10403;54.092;12.122;2024-02-21T03:45:33;9.00;99.90
20489;DHT22;10403;54.092;12.122;2024-02-21T03:48:00;9.00;99.90
20489;DHT22;10403;54.092;12.122;2024-02-21T03:50:28;9.00;99.90
20489;DHT22;10403;54.092;12.122;2024-02-21T03:52:56;9.00;99.90
20489;DHT22;10403;54.092;12.122;2024-02-21T03:55:23;9.00;99.90
20489;DHT22;10403;54.092;12.122;2024-02-21T03:57:51;9.00;99.90
20489;DHT22;10403;54.092;12.122;2024-02-21T04:00:18;9.00;99.90
20489;DHT22;10403;54.092;12.122;2024-02-21T04:02:46;9.00;99.90
20489;DHT22;10403;54.092;12.122;2024-02-21T04:05:16;9.00;99.90
20489;DHT22;10403;54.092;12.122;2024-02-21T04:07:44;9.00;99.90
20489;DHT22;10403;54.092;12.122;2024-02-21T04:10:12;9.00;99.90
20489;DHT22;10403;54.092;12.122;2024-02-21T04:12:39;9.00;99.90
20489;DHT22;10403;54.092;12.122;2024-02-21T04:15:07;9.00;99.90
20489;DHT22;10403;54.092;12.122;2024-02-21T04:17:34;9.00;99.90
20489;DHT22;10403;54.092;12.122;2024-02-21T04:20:05;9.00;99.90
20489;DHT22;10403;54.092;12.122;2024-02-21T04:22:33;9.00;99.90
20489;DHT22;10403;54.092;12.122;2024-02-21T04:25:01;9.00;99.90
20489;DHT22;10403;54.092;12.122;2024-02-21T04:27:28;9.10;99.90
20489;DHT22;10403;54.092;12.122;2024-02-21T04:29:55;9.10;99.90
20489;DHT22;10403;54.092;12.122;2024-02-21T04:32:23;9.10;99.90
20489;DHT22;10403;54.092;12.122;2024-02-21T04:34:50;9.10;99.90
20489;DHT22;10403;54.092;12.122;2024-02-21T04:37:18;9.10;99.90
20489;DHT22;10403;54.092;12.122;2024-02-21T04:39:45;9.10;99.90
20489;DHT22;10403;54.092;12.122;2024-02-21T04:42:13;9.10;99.90
20489;DHT22;10403;54.092;12.122;2024-02-21T04:44:40;9.10;99.90
20489;DHT22;10403;54.092;12.122;2024-02-21T04:47:08;9.10;99.90
20489;DHT22;10403;54.092;12.122;2024-02-21T04:49:35;9.10;99.90
20489;DHT22;10403;54.092;12.122;2024-02-21T04:52:03;9.20;99.90
20489;DHT22;10403;54.092;12.122;2024-02-21T04:54:31;9.20;99.90
20489;DHT22;10403;54.092;12.122;2024-02-21T04:56:59;9.20;99.90
20489;DHT22;10403;54.092;12.122;2024-02-21T04:59:26;9.10;99.90
20489;DHT22;10403;54.092;12.122;2024-02-21T05:01:53;9.10;99.90
20489;DHT22;10403;54.092;12.122;2024-02-21T05:04:21;9.20;99.90
20489;DHT22;10403;54.092;12.122;2024-02-21T05:06:48;9.20;99.90
20489;DHT22;10403;54.092;12.122;2024-02-21T05:09:15;9.20;99.90
20489;DHT22;10403;54.092;12.122;2024-02-21T05:11:43;9.20;99.90
20489;DHT22;10403;54.092;12.122;2024-02-21T05:14:10;9.20;99.90
20489;DHT22;10403;54.092;12.122;2024-02-21T05:16:39;9.20;99.90
20489;DHT22;10403;54.092;12.122;2024-02-21T05:19:07;9.20;99.90
20489;DHT22;10403;54.092;12.122;2024-02-21T05:21:34;9.20;99.90
20489;DHT22;10403;54.092;12.122;2024-02-21T05:24:02;9.20;99.90
20489;DHT22;10403;54.092;12.122;2024-02-21T05:26:29;9.20;99.90
20489;DHT22;10403;54.092;12.122;2024-02-21T05:28:56;9.20;99.90
20489;DHT22;10403;54.092;12.122;2024-02-21T05:34:19;9.20;99.90
20489;DHT22;10403;54.092;12.122;2024-02-21T05:36:48;9.20;99.90
20489;DHT22;10403;54.092;12.122;2024-02-21T05:39:17;9.20;99.90
20489;DHT22;10403;54.092;12.122;2024-02-21T05:41:45;9.20;99.90
20489;DHT22;10403;54.092;12.122;2024-02-21T05:44:13;9.20;99.90
20489;DHT22;10403;54.092;12.122;2024-02-21T05:46:40;9.20;99.90
20489;DHT22;10403;54.092;12.122;2024-02-21T05:49:07;9.20;99.90
20489;DHT22;10403;54.092;12.122;2024-02-21T05:51:35;9.20;99.90
20489;DHT22;10403;54.092;12.122;2024-02-21T05:54:02;9.20;99.90
20489;DHT22;10403;54.092;12.122;2024-02-21T05:56:30;9.20;99.90
20489;DHT22;10403;54.092;12.122;2024-02-21T05:58:57;9.20;99.90
20489;DHT22;10403;54.092;12.122;2024-02-21T06:01:24;9.20;99.90
20489;DHT22;10403;54.092;12.122;2024-02-21T06:03:52;9.20;99.90
20489;DHT22;10403;54.092;12.122;2024-02-21T06:06:19;9.20;99.90
20489;DHT22;10403;54.092;12.122;2024-02-21T06:08:49;9.20;99.90
20489;DHT22;10403;54.092;12.122;2024-02-21T06:11:16;9.20;99.90
20489;DHT22;10403;54.092;12.122;2024-02-21T06:13:43;9.10;99.90
20489;DHT22;10403;54.092;12.122;2024-02-21T06:16:11;9.10;99.90
20489;DHT22;10403;54.092;12.122;2024-02-21T06:18:38;9.00;99.90
20489;DHT22;10403;54.092;12.122;2024-02-21T06:21:06;9.00;99.90
20489;DHT22;10403;54.092;12.122;2024-02-21T06:23:33;9.00;99.90
20489;DHT22;10403;54.092;12.122;2024-02-21T06:26:00;9.00;99.90
20489;DHT22;10403;54.092;12.122;2024-02-21T06:28:28;9.00;99.90
20489;DHT22;10403;54.092;12.122;2024-02-21T06:30:55;9.00;99.90
20489;DHT22;10403;54.092;12.122;2024-02-21T06:33:22;8.90;99.90
20489;DHT22;10403;54.092;12.122;2024-02-21T06:35:52;8.90;99.90
20489;DHT22;10403;54.092;12.122;2024-02-21T06:38:20;8.90;99.90
20489;DHT22;10403;54.092;12.122;2024-02-21T06:40:47;8.90;99.90
20489;DHT22;10403;54.092;12.122;2024-02-21T06:43:18;8.90;99.90
20489;DHT22;10403;54.092;12.122;2024-02-21T06:45:47;8.80;99.90
20489;DHT22;10403;54.092;12.122;2024-02-21T06:48:18;8.80;99.90
20489;DHT22;10403;54.092;12.122;2024-02-21T06:50:46;8.80;99.90
20489;DHT22;10403;54.092;12.122;2024-02-21T06:53:14;8.80;99.90
20489;DHT22;10403;54.092;12.122;2024-02-21T06:55:41;8.90;99.90
20489;DHT22;10403;54.092;12.122;2024-02-21T06:58:08;8.90;99.90
20489;DHT22;10403;54.092;12.122;2024-02-21T07:00:41;8.90;99.90
20489;DHT22;10403;54.092;12.122;2024-02-21T07:03:09;8.90;99.90
20489;DHT22;10403;54.092;12.122;2024-02-21T07:05:36;8.90;99.90
20489;DHT22;10403;54.092;12.122;2024-02-21T07:08:04;8.90;99.90
20489;DHT22;10403;54.092;12.122;2024-02-21T07:10:32;8.80;99.90
20489;DHT22;10403;54.092;12.122;2024-02-21T07:12:59;8.90;99.90
20489;DHT22;10403;54.092;12.122;2024-02-21T07:15:27;8.90;99.90
20489;DHT22;10403;54.092;12.122;2024-02-21T07:17:55;8.80;99.90
20489;DHT22;10403;54.092;12.122;2024-02-21T07:20:22;8.80;99.90
20489;DHT22;10403;54.092;12.122;2024-02-21T07:22:50;8.70;99.90
20489;DHT22;10403;54.092;12.122;2024-02-21T07:25:17;8.70;99.90
20489;DHT22;10403;54.092;12.122;2024-02-21T07:27:45;8.70;99.90
20489;DHT22;10403;54.092;12.122;2024-02-21T07:30:13;8.70;99.90
20489;DHT22;10403;54.092;12.122;2024-02-21T07:32:43;8.70;99.90
20489;DHT22;10403;54.092;12.122;2024-02-21T07:35:11;8.70;99.90
20489;DHT22;10403;54.092;12.122;2024-02-21T07:37:39;8.70;99.90
20489;DHT22;10403;54.092;12.122;2024-02-21T07:40:12;8.80;99.90
20489;DHT22;10403;54.092;12.122;2024-02-21T07:42:43;8.80;99.90
20489;DHT22;10403;54.092;12.122;2024-02-21T07:45:14;8.80;99.90
20489;DHT22;10403;54.092;12.122;2024-02-21T07:47:42;8.80;99.90
20489;DHT22;10403;54.092;12.122;2024-02-21T07:50:09;8.90;99.90
20489;DHT22;10403;54.092;12.122;2024-02-21T07:52:37;8.90;99.90
20489;DHT22;10403;54.092;12.122;2024-02-21T07:55:04;8.90;99.90
20489;DHT22;10403;54.092;12.122;2024-02-21T07:57:32;9.00;99.90
20489;DHT22;10403;54.092;12.122;2024-02-21T07:59:59;9.00;99.90
20489;DHT22;10403;54.092;12.122;2024-02-21T08:02:27;9.00;99.90
20489;DHT22;10403;54.092;12.122;2024-02-21T08:04:55;9.00;99.90
20489;DHT22;10403;54.092;12.122;2024-02-21T08:07:22;9.00;99.90
20489;DHT22;10403;54.092;12.122;2024-02-21T08:09:49;9.10;99.90
20489;DHT22;10403;54.092;12.122;2024-02-21T08:12:17;9.10;99.90
20489;DHT22;10403;54.092;12.122;2024-02-21T08:14:44;9.10;99.90
20489;DHT22;10403;54.092;12.122;2024-02-21T08:17:11;9.10;99.90
20489;DHT22;10403;54.092;12.122;2024-02-21T08:19:38;9.10;99.90
20489;DHT22;10403;54.092;12.122;2024-02-21T08:22:06;9.10;99.90
20489;DHT22;10403;54.092;12.122;2024-02-21T08:24:33;9.10;99.90
20489;DHT22;10403;54.092;12.122;2024-02-21T08:27:01;9.10;99.90
20489;DHT22;10403;54.092;12.122;2024-02-21T08:29:28;9.10;99.90
20489;DHT22;10403;54.092;12.122;2024-02-21T08:31:55;9.00;99.90
20489;DHT22;10403;54.092;12.122;2024-02-21T08:34:22;9.10;99.90
20489;DHT22;10403;54.092;12.122;2024-02-21T08:36:50;9.10;99.90
20489;DHT22;10403;54.092;12.122;2024-02-21T08:39:17;9.10;99.90
20489;DHT22;10403;54.092;12.122;2024-02-21T08:41:46;9.10;99.90
20489;DHT22;10403;54.092;12.122;2024-02-21T08:44:24;9.10;99.90
20489;DHT22;10403;54.092;12.122;2024-02-21T08:46:55;9.10;99.90
20489;DHT22;10403;54.092;12.122;2024-02-21T08:49:24;9.10;99.90
20489;DHT22;10403;54.092;12.122;2024-02-21T08:52:00;9.10;99.90
20489;DHT22;10403;54.092;12.122;2024-02-21T08:54:31;9.10;99.90
20489;DHT22;10403;54.092;12.122;2024-02-21T08:57:02;9.10;99.90
20489;DHT22;10403;54.092;12.122;2024-02-21T08:59:30;9.20;99.90
20489;DHT22;10403;54.092;12.122;2024-02-21T09:01:57;9.20;99.90
20489;DHT22;10403;54.092;12.122;2024-02-21T09:04:25;9.30;99.90
20489;DHT22;10403;54.092;12.122;2024-02-21T09:06:52;9.30;99.90
20489;DHT22;10403;54.092;12.122;2024-02-21T09:09:19;9.40;99.90
20489;DHT22;10403;54.092;12.122;2024-02-21T09:11:47;9.40;99.90
20489;DHT22;10403;54.092;12.122;2024-02-21T09:14:14;9.40;99.90
20489;DHT22;10403;54.092;12.122;2024-02-21T09:16:42;9.50;99.90
20489;DHT22;10403;54.092;12.122;2024-02-21T09:19:10;9.60;99.90
20489;DHT22;10403;54.092;12.122;2024-02-21T09:21:38;9.60;99.90
20489;DHT22;10403;54.092;12.122;2024-02-21T09:24:06;9.60;99.90
20489;DHT22;10403;54.092;12.122;2024-02-21T09:26:33;9.60;99.90
20489;DHT22;10403;54.092;12.122;2024-02-21T09:29:00;9.60;99.90
20489;DHT22;10403;54.092;12.122;2024-02-21T09:31:28;9.70;99.90
20489;DHT22;10403;54.092;12.122;2024-02-21T09:33:56;9.70;99.90
20489;DHT22;10403;54.092;12.122;2024-02-21T09:36:23;9.80;99.90
20489;DHT22;10403;54.092;12.122;2024-02-21T09:38:51;9.80;99.90
20489;DHT22;10403;54.092;12.122;2024-02-21T09:41:25;9.80;99.90
20489;DHT22;10403;54.092;12.122;2024-02-21T09:43:54;9.90;99.90
20489;DHT22;10403;54.092;12.122;2024-02-21T09:46:30;9.90;99.90
20489;DHT22;10403;54.092;12.122;2024-02-21T09:49:29;9.90;99.90
20489;DHT22;10403;54.092;12.122;2024-02-21T09:52:02;10.00;99.90
20489;DHT22;10403;54.092;12.122;2024-02-21T09:54:35;10.00;99.90
20489;DHT22;10403;54.092;12.122;2024-02-21T09:57:03;10.00;99.90
20489;DHT22;10403;54.092;12.122;2024-02-21T09:59:32;10.00;99.90
20489;DHT22;10403;54.092;12.122;2024-02-21T10:02:00;10.10;99.90
20489;DHT22;10403;54.092;12.122;2024-02-21T10:04:29;10.10;99.90
20489;DHT22;10403;54.092;12.122;2024-02-21T10:06:57;10.20;99.90
20489;DHT22;10403;54.092;12.122;2024-02-21T10:09:26;10.20;99.90
20489;DHT22;10403;54.092;12.122;2024-02-21T10:11:56;10.30;99.90
20489;DHT22;10403;54.092;12.122;2024-02-21T10:14:35;10.30;99.90
20489;DHT22;10403;54.092;12.122;2024-02-21T10:17:02;10.40;99.90
20489;DHT22;10403;54.092;12.122;2024-02-21T10:19:31;10.40;99.90
20489;DHT22;10403;54.092;12.122;2024-02-21T10:22:08;10.40;99.90
20489;DHT22;10403;54.092;12.122;2024-02-21T10:24:37;10.30;99.90
20489;DHT22;10403;54.092;12.122;2024-02-21T10:27:06;10.30;99.90
20489;DHT22;10403;54.092;12.122;2024-02-21T10:29:40;10.20;99.90
20489;DHT22;10403;54.092;12.122;2024-02-21T10:32:10;10.20;99.90
20489;DHT22;10403;54.092;12.122;2024-02-21T10:34:40;10.10;99.90
20489;DHT22;10403;54.092;12.122;2024-02-21T10:37:11;10.10;99.90
20489;DHT22;10403;54.092;12.122;2024-02-21T10:39:42;10.10;99.90
20489;DHT22;10403;54.092;12.122;2024-02-21T10:42:11;10.10;99.90
20489;DHT22;10403;54.092;12.122;2024-02-21T10:44:40;10.10;99.90
20489;DHT22;10403;54.092;12.122;2024-02-21T10:47:10;10.10;99.90
20489;DHT22;10403;54.092;12.122;2024-02-21T10:49:42;10.10;99.90
20489;DHT22;10403;54.092;12.122;2024-02-21T10:52:22;10.20;99.90
20489;DHT22;10403;54.092;12.122;2024-02-21T10:55:19;10.20;99.90
20489;DHT22;10403;54.092;12.122;2024-02-21T10:57:51;10.20;99.90
20489;DHT22;10403;54.092;12.122;2024-02-21T11:00:19;10.20;99.90
20489;DHT22;10403;54.092;12.122;2024-02-21T11:02:48;10.20;99.90
20489;DHT22;10403;54.092;12.122;2024-02-21T11:05:18;10.30;99.90
20489;DHT22;10403;54.092;12.122;2024-02-21T11:07:46;10.30;99.90
20489;DHT22;10403;54.092;12.122;2024-02-21T11:10:24;10.30;99.90
20489;DHT22;10403;54.092;12.122;2024-02-21T11:13:10;10.40;99.90
20489;DHT22;10403;54.092;12.122;2024-02-21T11:15:38;10.40;99.90
20489;DHT22;10403;54.092;12.122;2024-02-21T11:18:05;10.40;99.90
20489;DHT22;10403;54.092;12.122;2024-02-21T11:20:37;10.40;99.90
20489;DHT22;10403;54.092;12.122;2024-02-21T11:23:05;10.50;99.90
20489;DHT22;10403;54.092;12.122;2024-02-21T11:25:34;10.50;99.90
20489;DHT22;10403;54.092;12.122;2024-02-21T11:28:05;10.00;99.90
20489;DHT22;10403;54.092;12.122;2024-02-21T11:30:37;10.60;99.90
20489;DHT22;10403;54.092;12.122;2024-02-21T11:33:06;10.60;99.90
20489;DHT22;10403;54.092;12.122;2024-02-21T11:35:35;10.60;99.90
20489;DHT22;10403;54.092;12.122;2024-02-21T11:38:11;10.70;99.90
20489;DHT22;10403;54.092;12.122;2024-02-21T11:40:46;10.70;99.90
20489;DHT22;10403;54.092;12.122;2024-02-21T11:43:15;10.70;99.90
20489;DHT22;10403;54.092;12.122;2024-02-21T11:45:43;10.70;99.90
20489;DHT22;10403;54.092;12.122;2024-02-21T11:48:11;10.80;99.90
20489;DHT22;10403;54.092;12.122;2024-02-21T11:50:38;10.80;99.90
20489;DHT22;10403;54.092;12.122;2024-02-21T11:53:09;10.80;99.90
20489;DHT22;10403;54.092;12.122;2024-02-21T11:55:36;10.80;99.90
20489;DHT22;10403;54.092;12.122;2024-02-21T11:58:04;10.80;99.90
20489;DHT22;10403;54.092;12.122;2024-02-21T12:00:31;10.90;99.90
20489;DHT22;10403;54.092;12.122;2024-02-21T12:02:59;10.90;99.90
20489;DHT22;10403;54.092;12.122;2024-02-21T12:05:29;10.80;99.90
20489;DHT22;10403;54.092;12.122;2024-02-21T12:07:57;10.90;99.90
20489;DHT22;10403;54.092;12.122;2024-02-21T12:10:26;10.90;99.90
20489;DHT22;10403;54.092;12.122;2024-02-21T12:13:05;10.90;99.90
20489;DHT22;10403;54.092;12.122;2024-02-21T12:15:34;10.90;99.90
20489;DHT22;10403;54.092;12.122;2024-02-21T12:18:02;10.90;99.90
20489;DHT22;10403;54.092;12.122;2024-02-21T12:20:31;11.00;99.90
20489;DHT22;10403;54.092;12.122;2024-02-21T12:23:02;11.00;99.90
20489;DHT22;10403;54.092;12.122;2024-02-21T12:25:31;11.00;99.90
20489;DHT22;10403;54.092;12.122;2024-02-21T12:27:58;11.00;99.90
20489;DHT22;10403;54.092;12.122;2024-02-21T12:30:28;11.00;99.90
20489;DHT22;10403;54.092;12.122;2024-02-21T12:32:55;11.10;99.90
20489;DHT22;10403;54.092;12.122;2024-02-21T12:35:23;11.10;99.90
20489;DHT22;10403;54.092;12.122;2024-02-21T12:37:50;11.10;99.90
20489;DHT22;10403;54.092;12.122;2024-02-21T12:40:18;11.20;99.90
20489;DHT22;10403;54.092;12.122;2024-02-21T12:42:45;11.10;99.90
20489;DHT22;10403;54.092;12.122;2024-02-21T12:45:13;11.20;99.90
20489;DHT22;10403;54.092;12.122;2024-02-21T12:47:42;11.20;99.90
20489;DHT22;10403;54.092;12.122;2024-02-21T12:50:10;11.20;99.90
20489;DHT22;10403;54.092;12.122;2024-02-21T12:52:37;11.20;99.90
20489;DHT22;10403;54.092;12.122;2024-02-21T12:55:05;11.20;99.90
20489;DHT22;10403;54.092;12.122;2024-02-21T12:57:32;11.10;99.90
20489;DHT22;10403;54.092;12.122;2024-02-21T13:00:00;11.10;99.90
20489;DHT22;10403;54.092;12.122;2024-02-21T13:02:27;11.10;99.90
20489;DHT22;10403;54.092;12.122;2024-02-21T13:04:55;11.10;99.90
20489;DHT22;10403;54.092;12.122;2024-02-21T13:07:23;11.10;99.90
20489;DHT22;10403;54.092;12.122;2024-02-21T13:09:50;11.10;99.90
20489;DHT22;10403;54.092;12.122;2024-02-21T13:12:18;11.20;99.90
20489;DHT22;10403;54.092;12.122;2024-02-21T13:14:45;11.20;99.90
20489;DHT22;10403;54.092;12.122;2024-02-21T13:17:12;11.10;99.90
20489;DHT22;10403;54.092;12.122;2024-02-21T13:19:42;11.10;99.90
20489;DHT22;10403;54.092;12.122;2024-02-21T13:22:09;11.10;99.90
20489;DHT22;10403;54.092;12.122;2024-02-21T13:24:37;11.20;99.90
20489;DHT22;10403;54.092;12.122;2024-02-21T13:27:04;11.20;99.90
20489;DHT22;10403;54.092;12.122;2024-02-21T13:29:31;11.20;99.90
20489;DHT22;10403;54.092;12.122;2024-02-21T13:31:59;11.30;99.90
20489;DHT22;10403;54.092;12.122;2024-02-21T13:34:26;11.30;99.90
20489;DHT22;10403;54.092;12.122;2024-02-21T13:36:54;11.30;99.90
20489;DHT22;10403;54.092;12.122;2024-02-21T13:39:21;11.30;99.90
20489;DHT22;10403;54.092;12.122;2024-02-21T13:41:49;11.30;99.90
20489;DHT22;10403;54.092;12.122;2024-02-21T13:44:16;11.30;99.90
20489;DHT22;10403;54.092;12.122;2024-02-21T13:46:43;11.30;99.90
20489;DHT22;10403;54.092;12.122;2024-02-21T13:49:11;11.30;99.90
20489;DHT22;10403;54.092;12.122;2024-02-21T13:51:39;11.30;99.90
20489;DHT22;10403;54.092;12.122;2024-02-21T13:54:08;11.20;99.90
20489;DHT22;10403;54.092;12.122;2024-02-21T13:56:39;11.30;99.90
20489;DHT22;10403;54.092;12.122;2024-02-21T13:59:06;11.20;99.90
20489;DHT22;10403;54.092;12.122;2024-02-21T14:01:33;11.20;99.90
20489;DHT22;10403;54.092;12.122;2024-02-21T14:04:03;11.20;99.90
20489;DHT22;10403;54.092;12.122;2024-02-21T14:06:31;11.20;99.90
20489;DHT22;10403;54.092;12.122;2024-02-21T14:08:58;11.20;99.90
20489;DHT22;10403;54.092;12.122;2024-02-21T14:11:26;11.20;99.90
20489;DHT22;10403;54.092;12.122;2024-02-21T14:13:57;11.20;99.90
20489;DHT22;10403;54.092;12.122;2024-02-21T14:16:25;11.20;99.90
20489;DHT22;10403;54.092;12.122;2024-02-21T14:18:53;11.20;99.90
20489;DHT22;10403;54.092;12.122;2024-02-21T14:21:21;11.20;99.90
20489;DHT22;10403;54.092;12.122;2024-02-21T14:23:49;11.20;99.90
20489;DHT22;10403;54.092;12.122;2024-02-21T14:26:16;11.20;99.90
20489;DHT22;10403;54.092;12.122;2024-02-21T14:28:43;11.20;99.90
20489;DHT22;10403;54.092;12.122;2024-02-21T14:31:11;11.20;99.90
20489;DHT22;10403;54.092;12.122;2024-02-21T14:33:38;11.10;99.90
20489;DHT22;10403;54.092;12.122;2024-02-21T14:36:06;11.10;99.90
20489;DHT22;10403;54.092;12.122;2024-02-21T14:38:36;11.10;99.90
20489;DHT22;10403;54.092;12.122;2024-02-21T14:41:03;11.10;99.90
20489;DHT22;10403;54.092;12.122;2024-02-21T14:43:33;11.00;99.90
20489;DHT22;10403;54.092;12.122;2024-02-21T14:46:02;11.00;99.90
20489;DHT22;10403;54.092;12.122;2024-02-21T14:48:31;11.00;99.90
20489;DHT22;10403;54.092;12.122;2024-02-21T14:50:59;11.00;99.90
20489;DHT22;10403;54.092;12.122;2024-02-21T14:53:27;10.90;99.90
20489;DHT22;10403;54.092;12.122;2024-02-21T14:55:54;10.90;99.90
20489;DHT22;10403;54.092;12.122;2024-02-21T14:58:22;10.90;99.90
20489;DHT22;10403;54.092;12.122;2024-02-21T15:00:49;10.80;99.90
20489;DHT22;10403;54.092;12.122;2024-02-21T15:03:17;10.80;99.90
20489;DHT22;10403;54.092;12.122;2024-02-21T15:05:48;10.80;99.90
20489;DHT22;10403;54.092;12.122;2024-02-21T15:08:15;10.80;99.90
20489;DHT22;10403;54.092;12.122;2024-02-21T15:10:44;10.80;99.90
20489;DHT22;10403;54.092;12.122;2024-02-21T15:13:11;10.70;99.90
20489;DHT22;10403;54.092;12.122;2024-02-21T15:15:39;10.70;99.90
20489;DHT22;10403;54.092;12.122;2024-02-21T15:18:06;10.70;99.90
20489;DHT22;10403;54.092;12.122;2024-02-21T15:20:33;10.70;99.90
20489;DHT22;10403;54.092;12.122;2024-02-21T15:23:01;10.70;99.90
20489;DHT22;10403;54.092;12.122;2024-02-21T15:25:31;10.60;99.90
20489;DHT22;10403;54.092;12.122;2024-02-21T15:28:00;10.60;99.90
20489;DHT22;10403;54.092;12.122;2024-02-21T15:30:29;10.60;99.90
20489;DHT22;10403;54.092;12.122;2024-02-21T15:33:00;10.60;99.90
20489;DHT22;10403;54.092;12.122;2024-02-21T15:35:29;10.60;99.90